Flight Track Log - Related Links

Times and Time Zones

All times are in EDT time to prevent confusion due to time zone crossing. See the N6GD flight status page for this flight to view local times or setup timezone preferences in your user account.

Time Position Orientation Groundspeed Altitude Reporting Facility
EDT Latitude Longitude Course Direction KTS MPH feet Rate Location/Type
Tue 05:45:11 PM 33.9297 -118.4553 223° Southwest 209 241 1,500  Level Los Angeles Center
Tue 05:46:13 PM 33.8769 -118.5153 223° Southwest 255 293 3,400 1,824 Climbing Los Angeles Center
Tue 05:47:16 PM 33.8147 -118.5339 194° South 256 295 5,300 2,016 Climbing Los Angeles Center
Tue 05:48:18 PM 33.7425 -118.5211 172° South 264 304 7,600 2,516 Climbing Los Angeles Center
Tue 05:49:20 PM 33.6750 -118.4461 137° Southeast 283 326 10,500 2,468 Climbing Los Angeles Center
Tue 05:50:22 PM 33.6364 -118.3592 118° Southeast 307 353 12,700 1,887 Climbing Los Angeles Center
Tue 05:51:24 PM 33.6236 -118.2564 98° East 320 368 14,400 1,452 Climbing Los Angeles Center
Tue 05:52:26 PM 33.6253 -118.1383 89° East 356 410 15,700 1,500 Climbing Los Angeles Center
Tue 05:53:28 PM 33.6269 -117.9881 89° East 376 433 17,500 1,694 Climbing Los Angeles Center
Tue 05:54:30 PM 33.6275 -117.8586 90° East 387 445 19,200 1,403 Climbing Los Angeles Center
Tue 05:55:32 PM 33.6283 -117.7247 90° East 397 457 20,400 1,258 Climbing Los Angeles Center
Tue 05:56:34 PM 33.6292 -117.5864 90° East 410 472 21,800 1,258 Climbing Los Angeles Center
Tue 05:57:36 PM 33.6300 -117.4431 90° East 424 488 23,000 1,306 Climbing Los Angeles Center
Tue 05:58:38 PM 33.6314 -117.2981 89° East 431 496 24,500 1,597 Climbing Los Angeles Center
Tue 05:59:40 PM 33.6319 -117.1233 90° East 434 499 26,300 1,694 Climbing Los Angeles Center
Tue 06:00:42 PM 33.6317 -116.9803 90° East 434 499 28,000 1,210 Climbing Los Angeles Center
Tue 06:01:44 PM 33.6275 -116.8417 92° East 434 499 28,800 774 Climbing Los Angeles Center
Tue 06:02:46 PM 33.6106 -116.6944 98° East 442 509 29,600 774 Climbing Los Angeles Center
Tue 06:03:48 PM 33.5922 -116.5419 98° East 454 522 30,400 871 Climbing Los Angeles Center
Tue 06:04:50 PM 33.5683 -116.3514 99° East 473 544 31,400 919 Climbing Los Angeles Center
Tue 06:05:52 PM 33.5506 -116.1908 98° East 485 558 32,300 878 Climbing Los Angeles Center
Tue 06:06:53 PM 33.5303 -116.0294 99° East 490 564 33,200 976 Climbing Los Angeles Center
Tue 06:07:55 PM 33.5114 -115.8681 98° East 490 564 34,300 1,016 Climbing Los Angeles Center
Tue 06:08:57 PM 33.4911 -115.7089 99° East 488 562 35,300 919 Climbing Los Angeles Center
Tue 06:09:59 PM 33.4714 -115.5522 99° East 480 552 36,200 774 Climbing Los Angeles Center
Tue 06:11:01 PM 33.4522 -115.3950 98° East 479 551 36,900 677 Climbing Los Angeles Center
Tue 06:12:03 PM 33.4314 -115.2378 99° East 478 550 37,600 581 Climbing Los Angeles Center
Tue 06:13:05 PM 33.4078 -115.0500 99° East 478 550 38,100 484 Climbing Los Angeles Center
Tue 06:14:07 PM 33.3886 -114.8914 98° East 480 552 38,600 435 Climbing Los Angeles Center
Tue 06:15:09 PM 33.3667 -114.7328 99° East 481 554 39,000 195 Climbing Los Angeles Center
Tue 06:16:10 PM 33.3461 -114.5725 99° East 485 558 39,000  Level Los Angeles Center
Tue 06:17:12 PM 33.3244 -114.4125 99° East 488 562 39,000  Level Los Angeles Center
Tue 06:18:09 PM 33.3053 -114.2533 98° East 492 566 39,000  Level Albuquerque Center
Tue 06:19:11 PM 33.2831 -114.0908 99° East 493 567 39,000  Level Albuquerque Center
Tue 06:20:13 PM 33.2614 -113.9286 99° East 493 567 39,000 -47 Level Albuquerque Center
Tue 06:21:20 PM 33.2308 -113.7297 100° East 494 568 38,900  Descending Los Angeles Center
Tue 06:22:17 PM 33.2111 -113.5708 98° East 494 568 39,000 50 Climbing Albuquerque Center
Tue 06:23:19 PM 33.1883 -113.4097 100° East 494 568 39,000  Level Albuquerque Center
Tue 06:24:21 PM 33.1642 -113.2472 100° East 494 568 39,000  Level Albuquerque Center
Tue 06:25:23 PM 33.1403 -113.0853 100° East 494 568 39,000  Level Albuquerque Center
Tue 06:26:25 PM 33.1178 -112.9228 99° East 494 568 39,000  Level Albuquerque Center
Tue 06:27:27 PM 33.0936 -112.7608 100° East 494 568 39,000  Level Albuquerque Center
Tue 06:28:29 PM 33.0639 -112.5644 100° East 495 570 39,000  Level Albuquerque Center
Tue 06:29:31 PM 33.0392 -112.4022 100° East 495 570 39,000  Level Albuquerque Center
Tue 06:30:33 PM 33.0133 -112.2406 101° East 497 572 39,000  Level Albuquerque Center
Tue 06:31:35 PM 32.9897 -112.0783 100° East 498 573 39,000  Level Albuquerque Center
Tue 06:32:37 PM 32.9656 -111.9181 100° East 498 573 39,000  Level Albuquerque Center
Tue 06:33:39 PM 32.9403 -111.7583 101° East 497 572 39,000  Level Albuquerque Center
Tue 06:34:41 PM 32.9103 -111.5664 100° East 497 572 39,000  Level Albuquerque Center
Tue 06:35:43 PM 32.8856 -111.4072 100° East 496 571 39,000  Level Albuquerque Center
Tue 06:36:45 PM 32.8603 -111.2472 101° East 494 568 39,000  Level Albuquerque Center
Tue 06:37:47 PM 32.8333 -111.0867 101° East 494 568 39,000  Level Albuquerque Center
Tue 06:38:49 PM 32.8086 -110.9272 100° East 494 568 39,000  Level Albuquerque Center
Tue 06:39:50 PM 32.7806 -110.7681 102° East 494 568 39,000  Level Albuquerque Center
Tue 06:40:52 PM 32.7522 -110.5944 101° East 494 568 39,000  Level Albuquerque Center
Tue 06:41:54 PM 32.7272 -110.4347 100° East 494 568 39,000  Level Albuquerque Center
Tue 06:42:56 PM 32.6931 -110.2436 102° East 495 570 39,000  Level Albuquerque Center
Tue 06:43:58 PM 32.6658 -110.0850 101° East 495 570 39,000  Level Albuquerque Center
Tue 06:44:59 PM 32.6394 -109.9275 101° East 493 567 39,000  Level Albuquerque Center
Tue 06:46:01 PM 32.6122 -109.7683 100° East 493 567 39,000  Level Albuquerque Center
Tue 06:47:03 PM 32.5822 -109.6097 103° East 494 568 39,000  Level Albuquerque Center
Tue 06:48:05 PM 32.5556 -109.4525 101° East 494 568 39,000  Level Albuquerque Center
Tue 06:49:06 PM 32.5225 -109.2658 102° East 492 566 39,000  Level Albuquerque Center
Tue 06:50:08 PM 32.4931 -109.1117 103° East 490 564 39,000  Level Albuquerque Center
Tue 06:51:10 PM 32.4661 -108.9569 102° East 488 562 39,000  Level Albuquerque Center
Tue 06:52:12 PM 32.4383 -108.8042 102° East 484 557 39,000  Level Albuquerque Center
Tue 06:53:13 PM 32.4111 -108.6506 102° East 484 557 39,000  Level Albuquerque Center
Tue 06:54:15 PM 32.3825 -108.4958 102° East 484 557 39,000  Level Albuquerque Center
Tue 06:55:17 PM 32.3447 -108.3075 103° East 486 559 39,000 -48 Level Albuquerque Center
Tue 06:56:19 PM 32.3153 -108.1500 102° East 489 563 38,900  Descending Albuquerque Center
Tue 06:57:21 PM 32.2867 -107.9942 102° East 489 563 39,000 49 Climbing Albuquerque Center
Tue 06:58:22 PM 32.2578 -107.8378 102° East 489 563 39,000  Level Albuquerque Center
Tue 06:59:24 PM 32.2278 -107.6806 103° East 489 563 39,000  Level Albuquerque Center
Tue 07:00:26 PM 32.1992 -107.5253 102° East 489 563 39,000  Level Albuquerque Center
Tue 07:01:28 PM 32.1633 -107.3394 103° East 489 563 39,000  Level Albuquerque Center
Tue 07:02:29 PM 32.1339 -107.1842 103° East 490 564 39,000  Level Albuquerque Center
Tue 07:03:31 PM 32.1036 -107.0308 103° East 490 564 39,000  Level Albuquerque Center
Tue 07:04:33 PM 32.0742 -106.8772 103° East 489 563 39,000  Level Albuquerque Center
Tue 07:05:35 PM 32.0447 -106.7258 103° East 482 555 39,000  Level Albuquerque Center
Tue 07:06:36 PM 32.0075 -106.5436 103° East 479 551 39,000  Level Albuquerque Center
Tue 07:07:38 PM 31.9772 -106.3875 103° East 480 552 39,000  Level Albuquerque Center
Tue 07:08:40 PM 31.9522 -106.2367 101° East 482 555 39,000  Level Albuquerque Center
Tue 07:09:42 PM 31.9486 -106.0811 92° East 481 554 39,000  Level Albuquerque Center
Tue 07:10:44 PM 31.9453 -105.9050 91° East 480 552 39,000  Level Albuquerque Center
Tue 07:11:45 PM 31.9414 -105.7483 92° East 480 552 39,000  Level Albuquerque Center
Tue 07:12:47 PM 31.9381 -105.5794 91° East 480 552 39,000  Level Albuquerque Center
Tue 07:13:49 PM 31.9342 -105.4217 92° East 481 554 39,000  Level Albuquerque Center
Tue 07:14:50 PM 31.9339 -105.2678 90° East 477 549 39,000  Level Albuquerque Center
Tue 07:15:52 PM 31.9258 -105.1117 93° East 477 549 39,000 -48 Level Albuquerque Center
Tue 07:16:54 PM 31.9297 -104.9506 88° East 483 556 38,900  Descending Albuquerque Center
Tue 07:17:55 PM 31.9269 -104.7931 91° East 484 557 39,000 49 Climbing Albuquerque Center
Tue 07:18:57 PM 31.9217 -104.6139 92° East 483 556 39,000  Level Albuquerque Center
Tue 07:19:59 PM 31.9161 -104.4572 92° East 483 556 39,000  Level Albuquerque Center
Tue 07:21:00 PM 31.9119 -104.3000 92° East 483 556 39,000  Level Albuquerque Center
Tue 07:22:02 PM 31.9061 -104.1442 92° East 482 555 39,000  Level Albuquerque Center
Tue 07:23:03 PM 31.9019 -103.9878 92° East 482 555 39,000  Level Albuquerque Center
Tue 07:24:05 PM 31.8975 -103.8328 92° East 480 552 39,000  Level Albuquerque Center
Tue 07:25:07 PM 31.8919 -103.6775 92° East 479 551 39,000  Level Albuquerque Center
Tue 07:26:08 PM 31.8856 -103.4914 92° East 479 551 39,000  Level Albuquerque Center
Tue 07:27:10 PM 31.8789 -103.3367 93° East 478 550 39,000  Level Albuquerque Center
Tue 07:28:11 PM 31.8667 -103.1831 95° East 478 550 39,000  Level Albuquerque Center
Tue 07:29:13 PM 31.8369 -103.0206 102° East 474 545 39,000  Level Albuquerque Center
Tue 07:30:14 PM 31.8114 -102.8681 101° East 474 545 39,000  Level Albuquerque Center
Tue 07:31:16 PM 31.7842 -102.7156 102° East 474 545 39,000  Level Albuquerque Center
Tue 07:31:46 PM 31.7736 -102.6531 101° East 476 548 39,000  Level Fort Worth Center
Tue 07:32:48 PM 31.7422 -102.4694 101° East 479 551 39,000  Level Fort Worth Center
Tue 07:33:50 PM 31.7156 -102.3153 101° East 478 550 39,000  Level Fort Worth Center
Tue 07:34:52 PM 31.6892 -102.1622 101° East 477 549 39,000  Level Fort Worth Center
Tue 07:35:54 PM 31.6636 -102.0083 101° East 476 548 39,000  Level Fort Worth Center
Tue 07:36:56 PM 31.6347 -101.8569 103° East 475 547 39,000 -48 Level Fort Worth Center
Tue 07:37:58 PM 31.6075 -101.7056 102° East 473 544 38,900  Descending Fort Worth Center
Tue 07:39:00 PM 31.5803 -101.5547 102° East 473 544 39,000 48 Climbing Fort Worth Center
Tue 07:40:02 PM 31.5525 -101.4053 102° East 472 543 39,000  Level Fort Worth Center
Tue 07:41:04 PM 31.5194 -101.2247 102° East 472 543 39,000  Level Fort Worth Center
Tue 07:42:06 PM 31.4928 -101.0772 102° East 470 541 39,000  Level Fort Worth Center
Tue 07:43:09 PM 31.4647 -100.9283 102° East 469 540 39,000  Level Fort Worth Center
Tue 07:44:11 PM 31.4367 -100.7806 103° East 469 540 39,000  Level Fort Worth Center
Tue 07:45:13 PM 31.4042 -100.6125 103° East 468 539 39,000  Level Fort Worth Center
Tue 07:46:15 PM 31.3792 -100.4644 101° East 467 537 39,000  Level Fort Worth Center
Tue 07:47:17 PM 31.3533 -100.3161 101° East 467 537 39,000  Level Fort Worth Center
Tue 07:48:19 PM 31.3261 -100.1689 102° East 466 536 39,000  Level Fort Worth Center
Tue 07:49:21 PM 31.3000 -100.0194 102° East 467 537 39,000  Level Fort Worth Center
Tue 07:50:23 PM 31.2736 -99.8711 102° East 466 536 39,000  Level Fort Worth Center
Tue 07:51:25 PM 31.2486 -99.7228 101° East 466 536 39,000  Level Fort Worth Center
Tue 07:52:27 PM 31.2167 -99.5442 102° East 467 537 39,000  Level Fort Worth Center
Tue 07:53:29 PM 31.1900 -99.3967 102° East 468 539 39,000  Level Fort Worth Center
Tue 07:54:32 PM 31.1633 -99.2494 102° East 464 534 39,000  Level Fort Worth Center
Tue 07:55:34 PM 31.1375 -99.1017 102° East 464 534 39,000  Level Fort Worth Center
Tue 07:56:28 PM 31.1147 -98.9694 101° East 464 534 39,000  Level Houston Center
Tue 07:57:29 PM 31.0872 -98.8231 102° East 463 533 39,000  Level Houston Center
Tue 07:58:31 PM 31.0611 -98.6769 102° East 463 533 39,000  Level Houston Center
Tue 07:59:33 PM 31.0314 -98.5014 101° East 463 533 39,000  Level Houston Center
Tue 08:00:35 PM 31.0053 -98.3550 102° East 463 533 39,000  Level Houston Center
Tue 08:01:36 PM 30.9794 -98.2100 102° East 462 532 39,000  Level Houston Center
Tue 08:02:48 PM 30.9481 -98.0361 102° East 460 529 39,000  Level Fort Worth Center
Tue 08:03:50 PM 30.9228 -97.8922 102° East 459 528 39,000  Level Fort Worth Center
Tue 08:04:53 PM 30.8978 -97.7486 101° East 459 528 39,000  Level Fort Worth Center
Tue 08:06:45 PM 30.8339 -97.4633 105° East 457 526 39,000  Level Houston Center
Tue 08:07:47 PM 30.8022 -97.3219 105° East 459 528 39,000  Level Houston Center
Tue 08:08:48 PM 30.7722 -97.1803 104° East 461 531 39,000  Level Houston Center
Tue 08:09:50 PM 30.7431 -97.0394 104° East 460 529 39,000  Level Houston Center
Tue 08:10:52 PM 30.7117 -96.8961 104° East 460 529 39,000  Level Houston Center
Tue 08:11:53 PM 30.6747 -96.7256 104° East 458 527 39,000  Level Houston Center
Tue 08:12:55 PM 30.6425 -96.5844 105° East 458 527 39,000  Level Houston Center
Tue 08:13:56 PM 30.6100 -96.4428 105° East 457 526 39,000  Level Houston Center
Tue 08:14:58 PM 30.5806 -96.3003 103° East 457 526 39,000  Level Houston Center
Tue 08:16:00 PM 30.5522 -96.1572 103° East 456 525 39,000  Level Houston Center
Tue 08:17:01 PM 30.5192 -95.9969 103° East 457 526 39,000  Level Houston Center
Tue 08:18:03 PM 30.4911 -95.8500 102° East 461 531 39,000  Level Houston Center
Tue 08:19:05 PM 30.4611 -95.7042 103° East 463 533 39,000  Level Houston Center
Tue 08:20:06 PM 30.4308 -95.5589 104° East 464 534 39,000  Level Houston Center
Tue 08:21:08 PM 30.4003 -95.4122 104° East 466 536 39,000  Level Houston Center
Tue 08:22:09 PM 30.3697 -95.2658 104° East 466 536 39,000  Level Houston Center
Tue 08:23:11 PM 30.3386 -95.1200 104° East 466 536 39,000  Level Houston Center
Tue 08:24:13 PM 30.3019 -94.9431 103° East 467 537 39,000  Level Houston Center
Tue 08:25:14 PM 30.2697 -94.7947 104° East 470 541 39,000  Level Houston Center
Tue 08:26:16 PM 30.2381 -94.6472 104° East 470 541 39,000  Level Houston Center
Tue 08:27:18 PM 30.2064 -94.5003 104° East 470 541 39,000  Level Houston Center
Tue 08:28:19 PM 30.1717 -94.3406 104° East 470 541 39,000  Level Houston Center
Tue 08:29:21 PM 30.1406 -94.1939 104° East 470 541 39,000  Level Houston Center
Tue 08:30:23 PM 30.1081 -94.0486 104° East 470 541 39,000  Level Houston Center
Tue 08:31:25 PM 30.0758 -93.9044 104° East 469 540 39,000  Level Houston Center
Tue 08:32:26 PM 30.0439 -93.7594 104° East 470 541 39,000  Level Houston Center
Tue 08:33:28 PM 30.0111 -93.6142 105° East 471 542 39,000  Level Houston Center
Tue 08:34:30 PM 29.9719 -93.4400 105° East 472 543 39,000  Level Houston Center
Tue 08:35:31 PM 29.9394 -93.2942 104° East 472 543 39,000  Level Houston Center
Tue 08:36:33 PM 29.9069 -93.1492 104° East 472 543 39,000  Level Houston Center
Tue 08:37:35 PM 29.8742 -93.0053 105° East 472 543 39,000  Level Houston Center
Tue 08:38:37 PM 29.8422 -92.8661 105° East 459 528 39,000  Level Houston Center
Tue 08:39:39 PM 29.8042 -92.6983 105° East 454 522 39,000  Level Houston Center
Tue 08:40:40 PM 29.7711 -92.5578 105° East 454 522 39,000  Level Houston Center
Tue 08:41:42 PM 29.7369 -92.4156 105° East 459 528 39,000  Level Houston Center
Tue 08:42:44 PM 29.7039 -92.2719 105° East 462 532 39,000  Level Houston Center
Tue 08:43:46 PM 29.6697 -92.1272 105° East 466 536 39,000  Level Houston Center
Tue 08:44:48 PM 29.6367 -91.9831 105° East 466 536 39,000  Level Houston Center
Tue 08:45:49 PM 29.6022 -91.8386 105° East 467 537 39,000  Level Houston Center
Tue 08:46:51 PM 29.5633 -91.6744 105° East 468 539 39,000 -48 Level Houston Center
Tue 08:47:53 PM 29.5283 -91.5297 105° East 469 540 38,900  Descending Houston Center
Tue 08:48:55 PM 29.4922 -91.3856 106° East 471 542 39,000 49 Climbing Houston Center
Tue 08:49:56 PM 29.4564 -91.2419 106° East 471 542 39,000  Level Houston Center
Tue 08:50:58 PM 29.4158 -91.0700 105° East 471 542 39,000  Level Houston Center
Tue 08:52:00 PM 29.3797 -90.9264 106° East 470 541 39,000  Level Houston Center
Tue 08:53:01 PM 29.3447 -90.7822 106° East 471 542 39,000  Level Houston Center
Tue 08:54:03 PM 29.3092 -90.6400 106° East 470 541 39,000  Level Houston Center
Tue 08:55:05 PM 29.2742 -90.4969 106° East 468 539 39,000  Level Houston Center
Tue 08:56:06 PM 29.2381 -90.3536 106° East 469 540 39,000  Level Houston Center
Tue 08:57:08 PM 29.1950 -90.1819 106° East 469 540 39,000  Level Houston Center
Tue 08:58:10 PM 29.1603 -90.0372 105° East 472 543 39,000  Level Houston Center
Tue 08:59:12 PM 29.1236 -89.8917 106° East 475 547 39,000  Level Houston Center
Tue 09:00:13 PM 29.0867 -89.7447 106° East 480 552 39,000  Level Houston Center
Tue 09:01:15 PM 29.0506 -89.5978 106° East 482 555 39,000  Level Houston Center
Tue 09:02:17 PM 29.0125 -89.4486 106° East 487 560 39,000  Level Houston Center
Tue 09:03:18 PM 28.9750 -89.3000 106° East 487 560 39,000  Level Houston Center
Tue 09:04:20 PM 28.9303 -89.1219 106° East 487 560 39,000  Level Houston Center
Tue 09:05:22 PM 28.8928 -88.9722 106° East 488 562 39,000  Level Houston Center
Tue 09:06:23 PM 28.8544 -88.8219 106° East 492 566 39,000  Level Houston Center
Tue 09:07:25 PM 28.8158 -88.6736 107° East 492 566 39,000  Level Houston Center
Tue 09:08:26 PM 28.7775 -88.5219 106° East 494 568 39,000  Level Houston Center
Tue 09:09:28 PM 28.7383 -88.3744 107° East 493 567 39,000  Level Houston Center
Tue 09:10:30 PM 28.6994 -88.2231 106° East 493 567 39,000  Level Houston Center
Tue 09:11:31 PM 28.6517 -88.0414 107° East 495 570 39,000  Level Houston Center
Tue 09:12:32 PM 28.6117 -87.8908 107° East 497 572 39,000  Level Houston Center
Tue 09:13:34 PM 28.5719 -87.7381 106° East 501 577 39,000  Level Houston Center
Tue 09:14:35 PM 28.5308 -87.5856 107° East 502 578 39,000  Level Houston Center
Tue 09:15:37 PM 28.4903 -87.4331 107° East 504 580 39,000  Level Houston Center
Tue 09:16:38 PM 28.4492 -87.2803 107° East 507 583 39,000 -195 Level Houston Center
Tue 09:17:40 PM 28.4083 -87.1292 107° East 506 582 38,600 -683 Descending Houston Center
Tue 09:18:41 PM 28.3678 -86.9800 107° East 500 575 37,600 -780 Descending Houston Center
Tue 09:19:43 PM 28.3203 -86.8050 107° East 491 565 37,000 -293 Descending Houston Center
Tue 09:20:44 PM 28.2808 -86.6647 108° East 476 548 37,000 -254 Level Houston Center
Tue 09:22:05 PM 28.2256 -86.4636 107° East 477 549 36,400 -723 Descending Jacksonville Center
Tue 09:23:05 PM 28.1878 -86.3211 107° East 484 557 35,300 -1,091 Descending Jacksonville Center
Tue 09:24:06 PM 28.1436 -86.1714 108° East 483 556 34,200 -1,041 Descending Jacksonville Center
Tue 09:25:06 PM 28.1033 -86.0311 108° East 483 556 33,200 -1,059 Descending Jacksonville Center
Tue 09:26:05 PM 28.0650 -85.8911 107° East 478 550 32,100 -1,100 Descending Jacksonville Center
Tue 09:27:06 PM 28.0242 -85.7536 109° East 478 550 31,000 -545 Descending Jacksonville Center
Tue 09:28:06 PM 27.9856 -85.6139 107° East 467 537 31,000  Level Jacksonville Center
Tue 09:29:44 PM 27.9239 -85.3878 107° East 471 542 31,000  Level Miami Center
Tue 09:30:44 PM 27.8850 -85.2425 107° East 478 550 31,000  Level Miami Center
Tue 09:31:45 PM 27.8694 -85.0894 97° East 489 563 31,000  Level Miami Center
Tue 09:32:46 PM 27.8558 -84.9461 96° East 489 563 31,000  Level Miami Center
Tue 09:33:47 PM 27.8392 -84.7603 96° East 494 568 31,000 -492 Level Miami Center
Tue 09:34:48 PM 27.8408 -84.6064 89° East 494 568 30,000 -1,574 Descending Miami Center
Tue 09:35:49 PM 27.8492 -84.4567 86° East 482 555 27,800 -2,262 Descending Miami Center
Tue 09:36:50 PM 27.8594 -84.3114 85° East 466 536 25,400 -2,115 Descending Miami Center
Tue 09:37:51 PM 27.8658 -84.1644 87° East 471 542 23,500 -1,918 Descending Miami Center
Tue 09:38:52 PM 27.8733 -84.0242 87° East 451 519 21,500 -1,918 Descending Miami Center
Tue 09:39:53 PM 27.8800 -83.8894 87° East 432 497 19,600 -1,820 Descending Miami Center
Tue 09:40:54 PM 27.8872 -83.7633 86° East 406 467 17,800 -1,785 Descending Miami Center
Tue 09:41:54 PM 27.8936 -83.6397 87° East 399 459 16,000 -2,033 Descending Miami Center
Tue 09:42:55 PM 27.9000 -83.5200 87° East 386 444 13,700 -2,213 Descending Miami Center
Tue 09:43:56 PM 27.9047 -83.4078 87° East 362 417 11,500 -1,820 Descending Miami Center
Tue 09:44:57 PM 27.9092 -83.2978 87° East 355 409 10,000 -787 Descending Miami Center
Tue 09:45:58 PM 27.9142 -83.1931 87° East 339 390 9,900 -49 Descending Miami Center
Tue 09:46:59 PM 27.9514 -83.0783 70° East 326 375 9,900  Level Miami Center
Tue 09:48:00 PM 27.9936 -82.9861 63° Northeast 326 375 9,900 -49 Level Miami Center
Tue 09:49:01 PM 28.0231 -82.8936 70° East 317 365 9,800 -509 Descending Miami Center
Tue 09:49:46 PM 28.0333 -82.8333 79° East 258 297 9,000 -1,314 Descending Tampa TRACON
Tue 09:50:46 PM 28.0000 -82.7667 120° Southeast 256 295 7,500 -1,148 Descending Tampa TRACON
Tue 09:51:41 PM 27.9500 -82.7000 130° Southeast 252 290 6,800 -1,252 Descending Tampa TRACON
Tue 09:52:41 PM 27.9167 -82.6500 127° Southeast 233 268 5,100 -1,700 Descending Tampa TRACON
Tue 09:53:41 PM 27.8667 -82.6000 139° Southeast 234 269 3,400 -1,095 Descending Tampa TRACON
Tue 09:54:47 PM 27.8667 -82.5500 90° East 136 157 2,800 -1,048 Descending Tampa TRACON
Tue 09:55:47 PM 27.9167 -82.5500 360° North 128 147 1,200 -1,316 Descending Tampa TRACON
Tue 09:56:41 PM 27.9500 -82.5500 360° North 135 155 300 -1,000 Descending Tampa TRACON
Tue 09:59:00 PM 27.9667 -82.5167 19° North  Level FlightAware Approximate
Tue 10:06:00 PM 27.9755 -82.5332 19° North  Level Estimated

Login

Don't have an account? Register now (free) for customized features, flight alerts, and more!